sensor_id;sensor_type;location;lat;lon;timestamp;P1;durP1;ratioP1;P2;durP2;ratioP2
19733;SDS011;10018;51.230;7.860;2022-10-17T00:00:40;10.60;;;6.17;;
19733;SDS011;10018;51.230;7.860;2022-10-17T00:03:05;13.57;;;6.40;;
19733;SDS011;10018;51.230;7.860;2022-10-17T00:05:31;14.13;;;7.57;;
19733;SDS011;10018;51.230;7.860;2022-10-17T00:07:56;16.97;;;6.70;;
19733;SDS011;10018;51.230;7.860;2022-10-17T00:10:22;17.23;;;7.97;;
19733;SDS011;10018;51.230;7.860;2022-10-17T00:12:48;17.13;;;7.23;;
19733;SDS011;10018;51.230;7.860;2022-10-17T00:15:16;14.47;;;7.90;;
19733;SDS011;10018;51.230;7.860;2022-10-17T00:17:42;10.97;;;7.33;;
19733;SDS011;10018;51.230;7.860;2022-10-17T00:20:08;16.20;;;7.57;;
19733;SDS011;10018;51.230;7.860;2022-10-17T00:22:34;14.10;;;9.47;;
19733;SDS011;10018;51.230;7.860;2022-10-17T00:25:00;15.33;;;8.20;;
19733;SDS011;10018;51.230;7.860;2022-10-17T00:27:25;13.80;;;8.27;;
19733;SDS011;10018;51.230;7.860;2022-10-17T00:29:51;14.47;;;8.50;;
19733;SDS011;10018;51.230;7.860;2022-10-17T00:32:17;14.67;;;8.13;;
19733;SDS011;10018;51.230;7.860;2022-10-17T00:34:43;15.10;;;8.03;;
19733;SDS011;10018;51.230;7.860;2022-10-17T00:37:09;14.63;;;7.70;;
19733;SDS011;10018;51.230;7.860;2022-10-17T00:39:34;12.47;;;7.20;;
19733;SDS011;10018;51.230;7.860;2022-10-17T00:42:00;11.43;;;6.53;;
19733;SDS011;10018;51.230;7.860;2022-10-17T00:46:57;8.73;;;5.90;;
19733;SDS011;10018;51.230;7.860;2022-10-17T00:49:29;14.93;;;6.23;;
19733;SDS011;10018;51.230;7.860;2022-10-17T00:51:59;15.00;;;5.90;;
19733;SDS011;10018;51.230;7.860;2022-10-17T00:54:33;9.37;;;5.07;;
19733;SDS011;10018;51.230;7.860;2022-10-17T00:57:01;15.50;;;6.10;;
19733;SDS011;10018;51.230;7.860;2022-10-17T00:59:28;9.23;;;5.43;;
19733;SDS011;10018;51.230;7.860;2022-10-17T01:01:59;10.57;;;5.50;;
19733;SDS011;10018;51.230;7.860;2022-10-17T01:04:45;9.73;;;5.57;;
19733;SDS011;10018;51.230;7.860;2022-10-17T01:07:14;11.43;;;5.80;;
19733;SDS011;10018;51.230;7.860;2022-10-17T01:09:39;11.40;;;5.70;;
19733;SDS011;10018;51.230;7.860;2022-10-17T01:12:09;12.03;;;5.73;;
19733;SDS011;10018;51.230;7.860;2022-10-17T01:17:21;9.37;;;5.30;;
19733;SDS011;10018;51.230;7.860;2022-10-17T01:23:09;13.77;;;6.57;;
19733;SDS011;10018;51.230;7.860;2022-10-17T01:30:54;11.63;;;6.10;;
19733;SDS011;10018;51.230;7.860;2022-10-17T01:36:18;12.57;;;6.63;;
19733;SDS011;10018;51.230;7.860;2022-10-17T01:39:12;11.90;;;6.97;;
19733;SDS011;10018;51.230;7.860;2022-10-17T01:42:36;10.23;;;6.77;;
19733;SDS011;10018;51.230;7.860;2022-10-17T01:47:20;14.70;;;8.00;;
19733;SDS011;10018;51.230;7.860;2022-10-17T01:49:50;11.23;;;7.00;;
19733;SDS011;10018;51.230;7.860;2022-10-17T01:52:42;13.10;;;6.87;;
19733;SDS011;10018;51.230;7.860;2022-10-17T01:55:19;9.80;;;6.97;;
19733;SDS011;10018;51.230;7.860;2022-10-17T01:57:50;12.37;;;6.93;;
19733;SDS011;10018;51.230;7.860;2022-10-17T02:00:22;10.50;;;6.30;;
19733;SDS011;10018;51.230;7.860;2022-10-17T02:02:55;13.63;;;7.13;;
19733;SDS011;10018;51.230;7.860;2022-10-17T02:05:25;13.33;;;6.90;;
19733;SDS011;10018;51.230;7.860;2022-10-17T02:07:54;11.43;;;6.83;;
19733;SDS011;10018;51.230;7.860;2022-10-17T02:10:31;11.93;;;7.07;;
19733;SDS011;10018;51.230;7.860;2022-10-17T02:24:04;7.43;;;5.90;;
19733;SDS011;10018;51.230;7.860;2022-10-17T02:26:43;9.57;;;6.10;;
19733;SDS011;10018;51.230;7.860;2022-10-17T02:29:21;11.70;;;6.20;;
19733;SDS011;10018;51.230;7.860;2022-10-17T02:34:37;9.20;;;5.50;;
19733;SDS011;10018;51.230;7.860;2022-10-17T02:37:07;8.63;;;5.63;;
19733;SDS011;10018;51.230;7.860;2022-10-17T02:39:35;11.03;;;6.27;;
19733;SDS011;10018;51.230;7.860;2022-10-17T02:42:05;10.27;;;5.73;;
19733;SDS011;10018;51.230;7.860;2022-10-17T02:44:34;10.60;;;6.00;;
19733;SDS011;10018;51.230;7.860;2022-10-17T02:47:06;9.10;;;6.00;;
19733;SDS011;10018;51.230;7.860;2022-10-17T02:49:55;9.03;;;6.40;;
19733;SDS011;10018;51.230;7.860;2022-10-17T02:54:54;9.30;;;5.60;;
19733;SDS011;10018;51.230;7.860;2022-10-17T02:57:30;10.80;;;5.70;;
19733;SDS011;10018;51.230;7.860;2022-10-17T03:00:02;9.63;;;5.97;;
19733;SDS011;10018;51.230;7.860;2022-10-17T03:02:44;14.70;;;5.93;;
19733;SDS011;10018;51.230;7.860;2022-10-17T03:05:16;12.60;;;5.87;;
19733;SDS011;10018;51.230;7.860;2022-10-17T03:08:02;14.80;;;6.27;;
19733;SDS011;10018;51.230;7.860;2022-10-17T03:10:27;10.30;;;5.77;;
19733;SDS011;10018;51.230;7.860;2022-10-17T03:12:53;14.50;;;5.70;;
19733;SDS011;10018;51.230;7.860;2022-10-17T03:15:19;10.57;;;5.73;;
19733;SDS011;10018;51.230;7.860;2022-10-17T03:17:45;9.40;;;6.00;;
19733;SDS011;10018;51.230;7.860;2022-10-17T03:20:10;9.57;;;5.53;;
19733;SDS011;10018;51.230;7.860;2022-10-17T03:22:36;12.60;;;6.33;;
19733;SDS011;10018;51.230;7.860;2022-10-17T03:25:01;13.40;;;6.37;;
19733;SDS011;10018;51.230;7.860;2022-10-17T03:27:27;9.70;;;6.20;;
19733;SDS011;10018;51.230;7.860;2022-10-17T03:29:52;10.93;;;6.93;;
19733;SDS011;10018;51.230;7.860;2022-10-17T03:32:18;10.70;;;6.80;;
19733;SDS011;10018;51.230;7.860;2022-10-17T03:34:43;15.53;;;7.47;;
19733;SDS011;10018;51.230;7.860;2022-10-17T03:37:09;10.07;;;6.73;;
19733;SDS011;10018;51.230;7.860;2022-10-17T03:39:34;11.57;;;6.80;;
19733;SDS011;10018;51.230;7.860;2022-10-17T03:42:00;13.03;;;6.53;;
19733;SDS011;10018;51.230;7.860;2022-10-17T03:44:25;10.13;;;6.83;;
19733;SDS011;10018;51.230;7.860;2022-10-17T03:46:51;12.03;;;7.27;;
19733;SDS011;10018;51.230;7.860;2022-10-17T03:49:16;13.27;;;6.83;;
19733;SDS011;10018;51.230;7.860;2022-10-17T03:51:42;15.60;;;6.73;;
19733;SDS011;10018;51.230;7.860;2022-10-17T03:54:07;15.80;;;7.27;;
19733;SDS011;10018;51.230;7.860;2022-10-17T03:56:33;11.03;;;6.30;;
19733;SDS011;10018;51.230;7.860;2022-10-17T03:58:58;12.07;;;6.80;;
19733;SDS011;10018;51.230;7.860;2022-10-17T04:01:24;9.93;;;6.73;;
19733;SDS011;10018;51.230;7.860;2022-10-17T04:03:53;11.03;;;6.77;;
19733;SDS011;10018;51.230;7.860;2022-10-17T04:06:20;11.47;;;6.73;;
19733;SDS011;10018;51.230;7.860;2022-10-17T04:08:46;11.53;;;6.37;;
19733;SDS011;10018;51.230;7.860;2022-10-17T04:11:14;17.63;;;7.37;;
19733;SDS011;10018;51.230;7.860;2022-10-17T04:13:42;13.23;;;6.53;;
19733;SDS011;10018;51.230;7.860;2022-10-17T04:16:12;16.17;;;6.63;;
19733;SDS011;10018;51.230;7.860;2022-10-17T04:18:39;13.20;;;6.53;;
19733;SDS011;10018;51.230;7.860;2022-10-17T04:21:05;19.03;;;6.83;;
19733;SDS011;10018;51.230;7.860;2022-10-17T04:23:31;11.20;;;6.60;;
19733;SDS011;10018;51.230;7.860;2022-10-17T04:25:57;13.40;;;7.07;;
19733;SDS011;10018;51.230;7.860;2022-10-17T04:28:24;11.20;;;6.40;;
19733;SDS011;10018;51.230;7.860;2022-10-17T04:31:01;10.67;;;6.57;;
19733;SDS011;10018;51.230;7.860;2022-10-17T04:33:32;13.00;;;7.20;;
19733;SDS011;10018;51.230;7.860;2022-10-17T04:35:58;12.97;;;6.83;;
19733;SDS011;10018;51.230;7.860;2022-10-17T04:38:38;9.33;;;7.03;;
19733;SDS011;10018;51.230;7.860;2022-10-17T04:41:04;12.40;;;6.77;;
19733;SDS011;10018;51.230;7.860;2022-10-17T04:43:31;14.17;;;7.27;;
19733;SDS011;10018;51.230;7.860;2022-10-17T04:45:59;11.80;;;6.87;;
19733;SDS011;10018;51.230;7.860;2022-10-17T04:48:26;11.10;;;7.03;;
19733;SDS011;10018;51.230;7.860;2022-10-17T04:50:57;10.47;;;6.77;;
19733;SDS011;10018;51.230;7.860;2022-10-17T04:53:23;11.33;;;6.53;;
19733;SDS011;10018;51.230;7.860;2022-10-17T04:55:49;11.17;;;6.83;;
19733;SDS011;10018;51.230;7.860;2022-10-17T04:58:15;15.03;;;6.90;;
19733;SDS011;10018;51.230;7.860;2022-10-17T05:00:41;13.97;;;6.87;;
19733;SDS011;10018;51.230;7.860;2022-10-17T05:03:07;12.33;;;6.57;;
19733;SDS011;10018;51.230;7.860;2022-10-17T05:05:35;10.17;;;6.77;;
19733;SDS011;10018;51.230;7.860;2022-10-17T05:08:02;18.40;;;6.80;;
19733;SDS011;10018;51.230;7.860;2022-10-17T05:10:28;10.23;;;7.00;;
19733;SDS011;10018;51.230;7.860;2022-10-17T05:12:54;16.53;;;6.80;;
19733;SDS011;10018;51.230;7.860;2022-10-17T05:15:19;11.50;;;6.83;;
19733;SDS011;10018;51.230;7.860;2022-10-17T05:17:45;13.03;;;6.10;;
19733;SDS011;10018;51.230;7.860;2022-10-17T05:20:10;12.80;;;6.40;;
19733;SDS011;10018;51.230;7.860;2022-10-17T05:22:36;10.83;;;6.90;;
19733;SDS011;10018;51.230;7.860;2022-10-17T05:25:02;9.50;;;6.93;;
19733;SDS011;10018;51.230;7.860;2022-10-17T05:27:27;12.13;;;6.90;;
19733;SDS011;10018;51.230;7.860;2022-10-17T05:29:53;10.60;;;7.17;;
19733;SDS011;10018;51.230;7.860;2022-10-17T05:32:18;11.93;;;6.43;;
19733;SDS011;10018;51.230;7.860;2022-10-17T05:34:44;15.13;;;7.10;;
19733;SDS011;10018;51.230;7.860;2022-10-17T05:37:09;15.13;;;6.90;;
19733;SDS011;10018;51.230;7.860;2022-10-17T05:39:35;12.87;;;7.10;;
19733;SDS011;10018;51.230;7.860;2022-10-17T05:42:00;13.03;;;7.53;;
19733;SDS011;10018;51.230;7.860;2022-10-17T05:44:26;12.10;;;7.30;;
19733;SDS011;10018;51.230;7.860;2022-10-17T05:46:51;13.87;;;8.23;;
19733;SDS011;10018;51.230;7.860;2022-10-17T05:49:17;11.57;;;7.60;;
19733;SDS011;10018;51.230;7.860;2022-10-17T05:51:42;12.37;;;8.20;;
19733;SDS011;10018;51.230;7.860;2022-10-17T05:54:08;12.50;;;7.60;;
19733;SDS011;10018;51.230;7.860;2022-10-17T05:56:34;9.83;;;6.63;;
19733;SDS011;10018;51.230;7.860;2022-10-17T05:58:59;15.40;;;6.67;;
19733;SDS011;10018;51.230;7.860;2022-10-17T06:01:25;14.93;;;6.33;;
19733;SDS011;10018;51.230;7.860;2022-10-17T06:03:51;13.17;;;6.90;;
19733;SDS011;10018;51.230;7.860;2022-10-17T06:06:16;10.83;;;6.70;;
19733;SDS011;10018;51.230;7.860;2022-10-17T06:08:42;12.93;;;7.00;;
19733;SDS011;10018;51.230;7.860;2022-10-17T06:11:09;14.13;;;6.80;;
19733;SDS011;10018;51.230;7.860;2022-10-17T06:13:35;11.27;;;7.07;;
19733;SDS011;10018;51.230;7.860;2022-10-17T06:16:00;13.63;;;7.53;;
19733;SDS011;10018;51.230;7.860;2022-10-17T06:18:26;12.80;;;7.20;;
19733;SDS011;10018;51.230;7.860;2022-10-17T06:20:51;12.07;;;7.47;;
19733;SDS011;10018;51.230;7.860;2022-10-17T06:23:17;10.73;;;7.00;;
19733;SDS011;10018;51.230;7.860;2022-10-17T06:25:43;10.93;;;6.87;;
19733;SDS011;10018;51.230;7.860;2022-10-17T06:28:08;10.53;;;6.97;;
19733;SDS011;10018;51.230;7.860;2022-10-17T06:30:36;14.50;;;7.00;;
19733;SDS011;10018;51.230;7.860;2022-10-17T06:33:03;12.90;;;7.47;;
19733;SDS011;10018;51.230;7.860;2022-10-17T06:35:29;13.73;;;7.57;;
19733;SDS011;10018;51.230;7.860;2022-10-17T06:37:55;14.03;;;7.47;;
19733;SDS011;10018;51.230;7.860;2022-10-17T06:40:21;11.47;;;7.20;;
19733;SDS011;10018;51.230;7.860;2022-10-17T06:42:46;10.47;;;6.53;;
19733;SDS011;10018;51.230;7.860;2022-10-17T06:45:12;13.20;;;7.20;;
19733;SDS011;10018;51.230;7.860;2022-10-17T06:47:37;14.10;;;7.90;;
19733;SDS011;10018;51.230;7.860;2022-10-17T06:50:03;17.33;;;8.50;;
19733;SDS011;10018;51.230;7.860;2022-10-17T06:52:29;13.03;;;7.33;;
19733;SDS011;10018;51.230;7.860;2022-10-17T06:54:55;14.90;;;7.70;;
19733;SDS011;10018;51.230;7.860;2022-10-17T06:57:20;11.93;;;7.17;;
19733;SDS011;10018;51.230;7.860;2022-10-17T06:59:46;15.23;;;7.20;;
19733;SDS011;10018;51.230;7.860;2022-10-17T07:02:12;23.63;;;9.00;;
19733;SDS011;10018;51.230;7.860;2022-10-17T07:04:37;22.23;;;8.63;;
19733;SDS011;10018;51.230;7.860;2022-10-17T07:07:03;18.90;;;9.17;;
19733;SDS011;10018;51.230;7.860;2022-10-17T07:09:29;20.20;;;8.27;;
19733;SDS011;10018;51.230;7.860;2022-10-17T07:11:55;18.40;;;9.73;;
19733;SDS011;10018;51.230;7.860;2022-10-17T07:14:21;18.40;;;9.57;;
19733;SDS011;10018;51.230;7.860;2022-10-17T07:16:47;17.57;;;8.17;;
19733;SDS011;10018;51.230;7.860;2022-10-17T07:19:12;17.30;;;8.50;;
19733;SDS011;10018;51.230;7.860;2022-10-17T07:21:38;12.53;;;7.53;;
19733;SDS011;10018;51.230;7.860;2022-10-17T07:24:03;17.87;;;8.57;;
19733;SDS011;10018;51.230;7.860;2022-10-17T07:26:31;17.27;;;8.50;;
19733;SDS011;10018;51.230;7.860;2022-10-17T07:28:57;14.03;;;7.73;;
19733;SDS011;10018;51.230;7.860;2022-10-17T07:31:22;15.20;;;8.40;;
19733;SDS011;10018;51.230;7.860;2022-10-17T07:33:48;14.13;;;7.97;;
19733;SDS011;10018;51.230;7.860;2022-10-17T07:36:15;13.13;;;7.40;;
19733;SDS011;10018;51.230;7.860;2022-10-17T07:38:40;12.63;;;7.60;;
19733;SDS011;10018;51.230;7.860;2022-10-17T07:41:07;14.47;;;7.37;;
19733;SDS011;10018;51.230;7.860;2022-10-17T07:43:34;13.23;;;8.00;;
19733;SDS011;10018;51.230;7.860;2022-10-17T07:46:01;11.93;;;7.50;;
19733;SDS011;10018;51.230;7.860;2022-10-17T07:48:27;12.00;;;7.20;;
19733;SDS011;10018;51.230;7.860;2022-10-17T07:50:53;12.00;;;7.27;;
19733;SDS011;10018;51.230;7.860;2022-10-17T07:53:18;11.97;;;6.90;;
19733;SDS011;10018;51.230;7.860;2022-10-17T07:55:44;12.27;;;6.73;;
19733;SDS011;10018;51.230;7.860;2022-10-17T07:58:10;11.37;;;7.53;;
19733;SDS011;10018;51.230;7.860;2022-10-17T08:00:36;15.17;;;7.07;;
19733;SDS011;10018;51.230;7.860;2022-10-17T08:03:02;11.40;;;7.47;;
19733;SDS011;10018;51.230;7.860;2022-10-17T08:05:29;8.97;;;6.23;;
19733;SDS011;10018;51.230;7.860;2022-10-17T08:07:55;9.67;;;6.37;;
19733;SDS011;10018;51.230;7.860;2022-10-17T08:10:20;8.37;;;6.50;;
19733;SDS011;10018;51.230;7.860;2022-10-17T08:12:51;14.27;;;6.50;;
19733;SDS011;10018;51.230;7.860;2022-10-17T08:15:18;29.83;;;6.33;;
19733;SDS011;10018;51.230;7.860;2022-10-17T08:17:43;10.53;;;6.17;;
19733;SDS011;10018;51.230;7.860;2022-10-17T08:20:09;10.70;;;6.03;;
19733;SDS011;10018;51.230;7.860;2022-10-17T08:22:35;9.03;;;5.27;;
19733;SDS011;10018;51.230;7.860;2022-10-17T08:25:00;15.00;;;5.20;;
19733;SDS011;10018;51.230;7.860;2022-10-17T08:27:26;8.33;;;4.67;;
19733;SDS011;10018;51.230;7.860;2022-10-17T08:29:52;6.47;;;4.30;;
19733;SDS011;10018;51.230;7.860;2022-10-17T08:32:19;12.10;;;4.43;;
19733;SDS011;10018;51.230;7.860;2022-10-17T08:34:46;6.73;;;3.73;;
19733;SDS011;10018;51.230;7.860;2022-10-17T08:37:12;6.93;;;4.10;;
19733;SDS011;10018;51.230;7.860;2022-10-17T08:39:38;9.13;;;4.03;;
19733;SDS011;10018;51.230;7.860;2022-10-17T08:44:55;10.47;;;3.97;;
19733;SDS011;10018;51.230;7.860;2022-10-17T08:47:27;13.17;;;4.10;;
19733;SDS011;10018;51.230;7.860;2022-10-17T08:50:00;7.83;;;4.17;;
19733;SDS011;10018;51.230;7.860;2022-10-17T08:52:35;6.73;;;3.80;;
19733;SDS011;10018;51.230;7.860;2022-10-17T08:55:17;10.17;;;3.93;;
19733;SDS011;10018;51.230;7.860;2022-10-17T08:57:51;10.03;;;4.40;;
19733;SDS011;10018;51.230;7.860;2022-10-17T09:00:17;5.33;;;3.70;;
19733;SDS011;10018;51.230;7.860;2022-10-17T09:10:50;5.83;;;4.03;;
19733;SDS011;10018;51.230;7.860;2022-10-17T09:13:38;8.60;;;4.00;;
19733;SDS011;10018;51.230;7.860;2022-10-17T09:16:33;12.63;;;3.93;;
19733;SDS011;10018;51.230;7.860;2022-10-17T09:19:11;8.70;;;4.00;;
19733;SDS011;10018;51.230;7.860;2022-10-17T09:24:14;13.97;;;4.30;;
19733;SDS011;10018;51.230;7.860;2022-10-17T09:26:51;5.97;;;3.77;;
19733;SDS011;10018;51.230;7.860;2022-10-17T09:29:22;6.80;;;3.80;;
19733;SDS011;10018;51.230;7.860;2022-10-17T09:31:53;9.10;;;3.90;;
19733;SDS011;10018;51.230;7.860;2022-10-17T09:34:27;6.70;;;3.87;;
19733;SDS011;10018;51.230;7.860;2022-10-17T09:36:53;7.77;;;3.67;;
19733;SDS011;10018;51.230;7.860;2022-10-17T09:39:22;10.33;;;3.80;;
19733;SDS011;10018;51.230;7.860;2022-10-17T09:41:53;12.67;;;4.67;;
19733;SDS011;10018;51.230;7.860;2022-10-17T09:44:27;9.93;;;3.80;;
19733;SDS011;10018;51.230;7.860;2022-10-17T09:47:04;12.10;;;3.67;;
19733;SDS011;10018;51.230;7.860;2022-10-17T09:49:34;7.10;;;4.20;;
19733;SDS011;10018;51.230;7.860;2022-10-17T09:52:03;9.13;;;4.47;;
19733;SDS011;10018;51.230;7.860;2022-10-17T09:54:41;8.63;;;4.20;;
19733;SDS011;10018;51.230;7.860;2022-10-17T09:57:12;11.17;;;4.07;;
19733;SDS011;10018;51.230;7.860;2022-10-17T09:59:41;7.90;;;3.80;;
19733;SDS011;10018;51.230;7.860;2022-10-17T10:02:15;10.33;;;3.97;;
19733;SDS011;10018;51.230;7.860;2022-10-17T10:05:02;8.87;;;3.80;;
19733;SDS011;10018;51.230;7.860;2022-10-17T10:07:30;7.53;;;3.80;;
19733;SDS011;10018;51.230;7.860;2022-10-17T10:10:01;9.23;;;3.73;;
19733;SDS011;10018;51.230;7.860;2022-10-17T10:12:29;8.17;;;3.70;;
19733;SDS011;10018;51.230;7.860;2022-10-17T10:14:56;8.13;;;3.77;;
19733;SDS011;10018;51.230;7.860;2022-10-17T10:20:00;6.10;;;3.53;;
19733;SDS011;10018;51.230;7.860;2022-10-17T10:22:26;5.53;;;3.73;;
19733;SDS011;10018;51.230;7.860;2022-10-17T10:25:12;8.80;;;3.80;;
19733;SDS011;10018;51.230;7.860;2022-10-17T10:27:41;11.20;;;4.17;;
19733;SDS011;10018;51.230;7.860;2022-10-17T10:30:18;8.77;;;3.70;;
19733;SDS011;10018;51.230;7.860;2022-10-17T10:32:49;9.83;;;3.77;;
19733;SDS011;10018;51.230;7.860;2022-10-17T10:35:29;9.00;;;3.90;;
19733;SDS011;10018;51.230;7.860;2022-10-17T10:37:57;6.20;;;3.30;;
19733;SDS011;10018;51.230;7.860;2022-10-17T10:40:26;10.77;;;3.97;;
19733;SDS011;10018;51.230;7.860;2022-10-17T10:42:56;7.03;;;3.50;;
19733;SDS011;10018;51.230;7.860;2022-10-17T10:45:25;10.77;;;3.63;;
19733;SDS011;10018;51.230;7.860;2022-10-17T10:50:27;9.60;;;3.33;;
19733;SDS011;10018;51.230;7.860;2022-10-17T10:55:51;10.33;;;3.40;;
19733;SDS011;10018;51.230;7.860;2022-10-17T10:58:29;9.23;;;3.33;;
19733;SDS011;10018;51.230;7.860;2022-10-17T11:01:20;10.93;;;3.93;;
19733;SDS011;10018;51.230;7.860;2022-10-17T11:06:51;9.60;;;3.90;;
19733;SDS011;10018;51.230;7.860;2022-10-17T11:12:01;6.50;;;3.20;;
19733;SDS011;10018;51.230;7.860;2022-10-17T11:14:44;6.93;;;3.50;;
19733;SDS011;10018;51.230;7.860;2022-10-17T11:19:49;6.30;;;3.43;;
19733;SDS011;10018;51.230;7.860;2022-10-17T11:22:25;8.30;;;3.50;;
19733;SDS011;10018;51.230;7.860;2022-10-17T11:25:03;9.57;;;3.87;;
19733;SDS011;10018;51.230;7.860;2022-10-17T11:27:37;7.87;;;4.03;;
19733;SDS011;10018;51.230;7.860;2022-10-17T11:30:02;7.10;;;3.90;;
19733;SDS011;10018;51.230;7.860;2022-10-17T11:32:39;6.90;;;3.53;;
19733;SDS011;10018;51.230;7.860;2022-10-17T11:35:36;9.97;;;3.80;;
19733;SDS011;10018;51.230;7.860;2022-10-17T11:41:05;8.77;;;3.73;;
19733;SDS011;10018;51.230;7.860;2022-10-17T11:43:42;7.43;;;3.60;;
19733;SDS011;10018;51.230;7.860;2022-10-17T11:46:16;7.30;;;3.40;;
19733;SDS011;10018;51.230;7.860;2022-10-17T11:51:22;8.70;;;3.40;;
19733;SDS011;10018;51.230;7.860;2022-10-17T11:53:50;9.13;;;3.43;;
19733;SDS011;10018;51.230;7.860;2022-10-17T11:56:25;7.93;;;3.37;;
19733;SDS011;10018;51.230;7.860;2022-10-17T11:59:11;10.73;;;3.27;;
19733;SDS011;10018;51.230;7.860;2022-10-17T12:01:59;8.10;;;3.20;;
19733;SDS011;10018;51.230;7.860;2022-10-17T12:07:35;9.80;;;3.07;;
19733;SDS011;10018;51.230;7.860;2022-10-17T12:10:28;10.40;;;3.57;;
19733;SDS011;10018;51.230;7.860;2022-10-17T12:13:46;11.23;;;3.50;;
19733;SDS011;10018;51.230;7.860;2022-10-17T12:15:57;7.80;;;3.30;;
19733;SDS011;10018;51.230;7.860;2022-10-17T12:18:42;8.50;;;3.30;;
19733;SDS011;10018;51.230;7.860;2022-10-17T12:21:08;5.63;;;3.27;;
19733;SDS011;10018;51.230;7.860;2022-10-17T12:23:33;11.03;;;3.30;;
19733;SDS011;10018;51.230;7.860;2022-10-17T12:26:03;11.37;;;3.47;;
19733;SDS011;10018;51.230;7.860;2022-10-17T12:28:31;9.73;;;3.67;;
19733;SDS011;10018;51.230;7.860;2022-10-17T12:38:41;8.93;;;3.63;;
19733;SDS011;10018;51.230;7.860;2022-10-17T12:41:14;6.80;;;3.60;;
19733;SDS011;10018;51.230;7.860;2022-10-17T12:43:50;6.13;;;3.60;;
19733;SDS011;10018;51.230;7.860;2022-10-17T12:49:21;6.53;;;3.10;;
19733;SDS011;10018;51.230;7.860;2022-10-17T12:52:13;8.97;;;3.40;;
19733;SDS011;10018;51.230;7.860;2022-10-17T12:54:52;9.40;;;3.47;;
19733;SDS011;10018;51.230;7.860;2022-10-17T12:57:22;7.60;;;3.57;;
19733;SDS011;10018;51.230;7.860;2022-10-17T12:59:54;8.67;;;3.70;;
19733;SDS011;10018;51.230;7.860;2022-10-17T13:02:22;6.27;;;3.40;;
19733;SDS011;10018;51.230;7.860;2022-10-17T13:04:51;10.03;;;3.50;;
19733;SDS011;10018;51.230;7.860;2022-10-17T13:07:23;13.60;;;3.73;;
19733;SDS011;10018;51.230;7.860;2022-10-17T13:09:49;8.20;;;3.57;;
19733;SDS011;10018;51.230;7.860;2022-10-17T13:12:22;7.23;;;3.77;;
19733;SDS011;10018;51.230;7.860;2022-10-17T13:14:50;12.63;;;3.70;;
19733;SDS011;10018;51.230;7.860;2022-10-17T13:17:25;10.40;;;3.83;;
19733;SDS011;10018;51.230;7.860;2022-10-17T13:19:55;10.63;;;3.73;;
19733;SDS011;10018;51.230;7.860;2022-10-17T13:22:25;10.03;;;3.70;;
19733;SDS011;10018;51.230;7.860;2022-10-17T13:27:50;5.97;;;3.40;;
19733;SDS011;10018;51.230;7.860;2022-10-17T13:30:29;10.17;;;3.53;;
19733;SDS011;10018;51.230;7.860;2022-10-17T13:32:56;10.60;;;3.57;;
19733;SDS011;10018;51.230;7.860;2022-10-17T13:37:53;11.20;;;3.47;;
19733;SDS011;10018;51.230;7.860;2022-10-17T13:40:21;11.33;;;3.63;;
19733;SDS011;10018;51.230;7.860;2022-10-17T13:42:49;8.13;;;3.10;;
19733;SDS011;10018;51.230;7.860;2022-10-17T13:47:48;8.30;;;3.53;;
19733;SDS011;10018;51.230;7.860;2022-10-17T13:50:30;7.03;;;3.53;;
19733;SDS011;10018;51.230;7.860;2022-10-17T13:53:12;10.80;;;3.77;;
19733;SDS011;10018;51.230;7.860;2022-10-17T13:55:49;9.60;;;3.60;;
19733;SDS011;10018;51.230;7.860;2022-10-17T13:58:29;11.50;;;3.73;;
19733;SDS011;10018;51.230;7.860;2022-10-17T14:01:25;7.17;;;3.60;;
19733;SDS011;10018;51.230;7.860;2022-10-17T14:03:52;6.67;;;3.40;;
19733;SDS011;10018;51.230;7.860;2022-10-17T14:06:19;11.80;;;3.43;;
19733;SDS011;10018;51.230;7.860;2022-10-17T14:11:18;10.00;;;3.53;;
19733;SDS011;10018;51.230;7.860;2022-10-17T14:13:49;11.67;;;3.73;;
19733;SDS011;10018;51.230;7.860;2022-10-17T14:16:16;12.73;;;4.10;;
19733;SDS011;10018;51.230;7.860;2022-10-17T14:18:44;7.53;;;3.57;;
19733;SDS011;10018;51.230;7.860;2022-10-17T14:21:17;7.90;;;3.47;;
19733;SDS011;10018;51.230;7.860;2022-10-17T14:23:47;6.73;;;3.50;;
19733;SDS011;10018;51.230;7.860;2022-10-17T14:26:18;13.60;;;3.47;;
19733;SDS011;10018;51.230;7.860;2022-10-17T14:29:17;11.70;;;3.37;;
19733;SDS011;10018;51.230;7.860;2022-10-17T14:31:45;9.60;;;3.70;;
19733;SDS011;10018;51.230;7.860;2022-10-17T14:34:25;9.40;;;3.23;;
19733;SDS011;10018;51.230;7.860;2022-10-17T14:37:09;9.77;;;3.80;;
19733;SDS011;10018;51.230;7.860;2022-10-17T14:39:36;10.70;;;3.93;;
19733;SDS011;10018;51.230;7.860;2022-10-17T14:42:03;6.70;;;3.70;;
19733;SDS011;10018;51.230;7.860;2022-10-17T14:44:29;9.70;;;3.70;;
19733;SDS011;10018;51.230;7.860;2022-10-17T14:46:58;8.30;;;3.43;;
19733;SDS011;10018;51.230;7.860;2022-10-17T14:49:27;10.00;;;4.17;;
19733;SDS011;10018;51.230;7.860;2022-10-17T14:52:11;9.53;;;3.80;;
19733;SDS011;10018;51.230;7.860;2022-10-17T14:54:48;11.57;;;3.63;;
19733;SDS011;10018;51.230;7.860;2022-10-17T14:57:17;10.30;;;3.80;;
19733;SDS011;10018;51.230;7.860;2022-10-17T14:59:53;10.40;;;4.00;;
19733;SDS011;10018;51.230;7.860;2022-10-17T15:02:20;7.90;;;3.50;;
19733;SDS011;10018;51.230;7.860;2022-10-17T15:04:46;10.03;;;3.80;;
19733;SDS011;10018;51.230;7.860;2022-10-17T15:07:14;7.43;;;4.27;;
19733;SDS011;10018;51.230;7.860;2022-10-17T15:09:42;15.03;;;4.30;;
19733;SDS011;10018;51.230;7.860;2022-10-17T15:12:15;14.37;;;4.23;;
19733;SDS011;10018;51.230;7.860;2022-10-17T15:14:42;11.40;;;3.63;;
19733;SDS011;10018;51.230;7.860;2022-10-17T15:17:11;7.23;;;3.83;;
19733;SDS011;10018;51.230;7.860;2022-10-17T15:19:38;8.43;;;3.73;;
19733;SDS011;10018;51.230;7.860;2022-10-17T15:22:04;11.33;;;3.93;;
19733;SDS011;10018;51.230;7.860;2022-10-17T15:24:29;11.60;;;4.00;;
19733;SDS011;10018;51.230;7.860;2022-10-17T15:26:55;11.27;;;5.03;;
19733;SDS011;10018;51.230;7.860;2022-10-17T15:29:20;13.47;;;4.60;;
19733;SDS011;10018;51.230;7.860;2022-10-17T15:31:46;10.43;;;4.00;;
19733;SDS011;10018;51.230;7.860;2022-10-17T15:34:11;14.57;;;4.60;;
19733;SDS011;10018;51.230;7.860;2022-10-17T15:36:40;10.70;;;4.43;;
19733;SDS011;10018;51.230;7.860;2022-10-17T15:39:11;6.73;;;4.03;;
19733;SDS011;10018;51.230;7.860;2022-10-17T15:41:37;11.33;;;4.47;;
19733;SDS011;10018;51.230;7.860;2022-10-17T15:44:03;9.37;;;3.60;;
19733;SDS011;10018;51.230;7.860;2022-10-17T15:46:29;10.57;;;4.20;;
19733;SDS011;10018;51.230;7.860;2022-10-17T15:49:00;9.73;;;4.17;;
19733;SDS011;10018;51.230;7.860;2022-10-17T15:51:26;11.27;;;4.30;;
19733;SDS011;10018;51.230;7.860;2022-10-17T15:53:52;7.57;;;3.83;;
19733;SDS011;10018;51.230;7.860;2022-10-17T15:56:19;8.67;;;4.37;;
19733;SDS011;10018;51.230;7.860;2022-10-17T15:58:47;16.40;;;4.20;;
19733;SDS011;10018;51.230;7.860;2022-10-17T16:01:31;7.20;;;4.13;;
19733;SDS011;10018;51.230;7.860;2022-10-17T16:03:57;10.23;;;4.10;;
19733;SDS011;10018;51.230;7.860;2022-10-17T16:06:23;13.93;;;4.50;;
19733;SDS011;10018;51.230;7.860;2022-10-17T16:08:49;9.97;;;4.23;;
19733;SDS011;10018;51.230;7.860;2022-10-17T16:11:16;12.07;;;4.03;;
19733;SDS011;10018;51.230;7.860;2022-10-17T16:13:55;10.43;;;3.60;;
19733;SDS011;10018;51.230;7.860;2022-10-17T16:16:23;9.43;;;4.00;;
19733;SDS011;10018;51.230;7.860;2022-10-17T16:18:48;10.87;;;3.73;;
19733;SDS011;10018;51.230;7.860;2022-10-17T16:21:14;11.80;;;4.53;;
19733;SDS011;10018;51.230;7.860;2022-10-17T16:23:40;7.57;;;3.63;;
19733;SDS011;10018;51.230;7.860;2022-10-17T16:26:06;8.77;;;3.80;;
19733;SDS011;10018;51.230;7.860;2022-10-17T16:28:33;9.27;;;4.20;;